PWSweather.com
Personal Weather Stations
Station Observations
TURNER1
South Turner, Turner, ME 04282

South TurnerTurner, ME 04282

Lat: 44.193235, Lon: -70.264886

Elevation: 500

Station Type: Davis Vantage Pro

www.southturnermaineweather.com

High Low Average
Temperature 54.2°F12.3°C 47.4°F8.6°C 50.5°F10.3°C
Dew Point 54.0°F12.2°C 47.4°F8.6°C 50.4°F10.2°C
Winds 8.1 mph 13.0 kmh Calm Calm 3.0 mph NNW4.8 kmh NNW
Wind Gusts 13.8 mph22.2 kmh -- 5.0 mph8.0 kmh
Humidity 100% 89% 100%
Pressure 30.11 in1019.6 mb 29.92 in1013.2 mb -
Precipitation 0.02 in0.5 mm - -
Hour Temp Dew Point Humidity Winds Wind Gusts Pressure Precip Precip Rate Daily Precip Total
12:00 AM 52.8°F11.6°C 47.1°F8.4°C 81% 6.9 mph NNW11.1 kmh NNW 8.1 mph13.0 kmh 30.12 in1020.0 mb - 0.00 in0.0 mm 0.00 in0.0 mm
12:30 AM 52.3°F11.3°C 47.3°F8.5°C 83% 5.8 mph N9.3 kmh N 11.5 mph18.5 kmh 30.11 in1019.6 mb - 0.00 in0.0 mm 0.00 in0.0 mm
01:00 AM 51.3°F10.7°C 48.2°F9.0°C 89% 2.3 mph NNW3.7 kmh NNW 5.8 mph9.3 kmh 30.11 in1019.6 mb - 0.00 in0.0 mm 0.00 in0.0 mm
01:30 AM 50.2°F10.1°C 48.8°F9.3°C 95% 8.1 mph NNW13.0 kmh NNW 10.4 mph16.7 kmh 30.10 in1019.3 mb - 0.00 in0.0 mm 0.00 in0.0 mm
02:00 AM 48.8°F9.3°C 48.8°F9.3°C 100% 3.5 mph N5.6 kmh N 3.5 mph5.6 kmh 30.09 in1019.0 mb - 0.00 in0.0 mm 0.00 in0.0 mm
02:30 AM 48.3°F9.1°C 48.3°F9.1°C 100% 3.5 mph NW5.6 kmh NW 8.1 mph13.0 kmh 30.08 in1018.6 mb - 0.01 in0.3 mm 0.01 in0.3 mm
03:00 AM 48.0°F8.9°C 48.0°F8.9°C 100% 4.6 mph NNW7.4 kmh NNW 10.4 mph16.7 kmh 30.07 in1018.3 mb - 0.00 in0.0 mm 0.01 in0.3 mm
03:30 AM 48.0°F8.9°C 48.0°F8.9°C 100% 4.6 mph NW7.4 kmh NW 5.8 mph9.3 kmh 30.05 in1017.6 mb - 0.00 in0.0 mm 0.01 in0.3 mm
04:00 AM 48.0°F8.9°C 48.0°F8.9°C 100% 4.6 mph NNW7.4 kmh NNW 6.9 mph11.1 kmh 30.05 in1017.6 mb - 0.00 in0.0 mm 0.01 in0.3 mm
04:30 AM 48.0°F8.9°C 48.0°F8.9°C 100% 3.5 mph NNW5.6 kmh NNW 5.8 mph9.3 kmh 30.04 in1017.3 mb - 0.00 in0.0 mm 0.01 in0.3 mm
05:00 AM 47.9°F8.8°C 47.9°F8.8°C 100% 8.1 mph N13.0 kmh N 12.7 mph20.4 kmh 30.03 in1016.9 mb - 0.00 in0.0 mm 0.01 in0.3 mm
05:30 AM 47.7°F8.7°C 47.7°F8.7°C 100% 6.9 mph N11.1 kmh N 11.5 mph18.5 kmh 30.02 in1016.6 mb - 0.00 in0.0 mm 0.01 in0.3 mm
06:00 AM 47.6°F8.7°C 47.6°F8.7°C 100% 3.5 mph NNW5.6 kmh NNW 3.5 mph5.6 kmh 30.02 in1016.6 mb - 0.00 in0.0 mm 0.01 in0.3 mm
06:30 AM 47.6°F8.7°C 47.6°F8.7°C 100% 4.6 mph NNW7.4 kmh NNW 6.9 mph11.1 kmh 30.02 in1016.6 mb - 0.01 in0.3 mm 0.02 in0.5 mm
07:00 AM 47.4°F8.6°C 47.4°F8.6°C 100% 4.6 mph NNW7.4 kmh NNW 8.1 mph13.0 kmh 30.02 in1016.6 mb - 0.00 in0.0 mm 0.02 in0.5 mm
07:30 AM 47.4°F8.6°C 47.4°F8.6°C 100% 4.6 mph NW7.4 kmh NW 5.8 mph9.3 kmh 30.02 in1016.6 mb - 0.00 in0.0 mm 0.02 in0.5 mm
08:00 AM 47.4°F8.6°C 47.4°F8.6°C 100% 8.1 mph NW13.0 kmh NW 13.8 mph22.2 kmh 30.01 in1016.3 mb - 0.00 in0.0 mm 0.02 in0.5 mm
08:30 AM 47.7°F8.7°C 47.7°F8.7°C 100% 6.9 mph NNW11.1 kmh NNW 10.4 mph16.7 kmh 30.01 in1016.3 mb - 0.00 in0.0 mm 0.02 in0.5 mm
09:00 AM 48.0°F8.9°C 48.0°F8.9°C 100% 5.8 mph NNW9.3 kmh NNW 8.1 mph13.0 kmh 29.99 in1015.6 mb - 0.00 in0.0 mm 0.02 in0.5 mm
09:30 AM 48.3°F9.1°C 48.3°F9.1°C 100% 3.5 mph NW5.6 kmh NW 5.8 mph9.3 kmh 30.00 in1015.9 mb - 0.00 in0.0 mm 0.02 in0.5 mm
10:00 AM 48.6°F9.2°C 48.6°F9.2°C 100% 2.3 mph NW3.7 kmh NW 5.8 mph9.3 kmh 29.99 in1015.6 mb - 0.00 in0.0 mm 0.02 in0.5 mm
10:30 AM 49.1°F9.5°C 49.1°F9.5°C 100% 3.5 mph NW5.6 kmh NW 3.5 mph5.6 kmh 29.99 in1015.6 mb - 0.00 in0.0 mm 0.02 in0.5 mm
11:00 AM 49.2°F9.6°C 49.2°F9.6°C 100% 4.6 mph N7.4 kmh N 8.1 mph13.0 kmh 29.99 in1015.6 mb - 0.00 in0.0 mm 0.02 in0.5 mm
11:30 AM 49.8°F9.9°C 49.8°F9.9°C 100% 3.5 mph NNW5.6 kmh NNW 5.8 mph9.3 kmh 29.98 in1015.2 mb - 0.00 in0.0 mm 0.02 in0.5 mm
12:00 PM 50.1°F10.1°C 50.1°F10.1°C 100% 5.8 mph NW9.3 kmh NW 12.7 mph20.4 kmh 29.97 in1014.9 mb - 0.00 in0.0 mm 0.02 in0.5 mm
12:30 PM 50.5°F10.3°C 50.5°F10.3°C 100% 5.8 mph NNW9.3 kmh NNW 6.9 mph11.1 kmh 29.96 in1014.6 mb - 0.00 in0.0 mm 0.02 in0.5 mm
01:00 PM 50.8°F10.4°C 50.8°F10.4°C 100% 5.8 mph NNW9.3 kmh NNW 8.1 mph13.0 kmh 29.96 in1014.6 mb - 0.00 in0.0 mm 0.02 in0.5 mm
01:30 PM 51.4°F10.8°C 51.4°F10.8°C 100% 2.3 mph N3.7 kmh N 5.8 mph9.3 kmh 29.96 in1014.6 mb - 0.00 in0.0 mm 0.02 in0.5 mm
02:00 PM 51.9°F11.1°C 51.9°F11.1°C 100% 2.3 mph N3.7 kmh N 6.9 mph11.1 kmh 29.95 in1014.2 mb - 0.00 in0.0 mm 0.02 in0.5 mm
02:30 PM 52.3°F11.3°C 52.3°F11.3°C 100% 4.6 mph NNW7.4 kmh NNW 10.4 mph16.7 kmh 29.95 in1014.2 mb - 0.00 in0.0 mm 0.02 in0.5 mm
03:00 PM 52.8°F11.6°C 52.8°F11.6°C 100% 5.8 mph NW9.3 kmh NW 6.9 mph11.1 kmh 29.93 in1013.5 mb - 0.00 in0.0 mm 0.02 in0.5 mm
03:30 PM 53.5°F11.9°C 53.5°F11.9°C 100% 5.8 mph NW9.3 kmh NW 6.9 mph11.1 kmh 29.93 in1013.5 mb - 0.00 in0.0 mm 0.02 in0.5 mm
04:00 PM 54.0°F12.2°C 54.0°F12.2°C 100% 2.3 mph NNW3.7 kmh NNW 3.5 mph5.6 kmh 29.92 in1013.2 mb - 0.00 in0.0 mm 0.02 in0.5 mm
04:30 PM 54.2°F12.3°C 53.4°F11.9°C 97% 5.8 mph NNW9.3 kmh NNW 8.1 mph13.0 kmh 29.92 in1013.2 mb - 0.00 in0.0 mm 0.02 in0.5 mm
05:00 PM 53.8°F12.1°C 53.5°F11.9°C 99% 2.3 mph NNW3.7 kmh NNW 3.5 mph5.6 kmh 29.93 in1013.5 mb - 0.00 in0.0 mm 0.02 in0.5 mm
05:30 PM 53.6°F12.0°C 53.3°F11.8°C 99% 2.3 mph NNW3.7 kmh NNW 2.3 mph3.7 kmh 29.92 in1013.2 mb - 0.00 in0.0 mm 0.02 in0.5 mm
06:00 PM 53.3°F11.8°C 53.3°F11.8°C 100% 2.3 mph N3.7 kmh N 2.3 mph3.7 kmh 29.93 in1013.5 mb - 0.00 in0.0 mm 0.02 in0.5 mm
06:30 PM 52.9°F11.6°C 52.9°F11.6°C 100% 1.2 mph N1.9 kmh N 1.2 mph1.9 kmh 29.92 in1013.2 mb - 0.00 in0.0 mm 0.02 in0.5 mm
07:00 PM 52.7°F11.5°C 52.7°F11.5°C 100% 1.2 mph NNW1.9 kmh NNW 3.5 mph5.6 kmh 29.93 in1013.5 mb - 0.00 in0.0 mm 0.02 in0.5 mm
07:30 PM 52.5°F11.4°C 52.5°F11.4°C 100% 1.2 mph N1.9 kmh N 1.2 mph1.9 kmh 29.93 in1013.5 mb - 0.00 in0.0 mm 0.02 in0.5 mm
08:00 PM 52.3°F11.3°C 52.3°F11.3°C 100% 1.2 mph N1.9 kmh N 1.2 mph1.9 kmh 29.93 in1013.5 mb - 0.00 in0.0 mm 0.02 in0.5 mm
08:30 PM 52.5°F11.4°C 52.5°F11.4°C 100% Calm Calm -- 29.95 in1014.2 mb - 0.00 in0.0 mm 0.02 in0.5 mm
09:00 PM 52.2°F11.2°C 52.2°F11.2°C 100% Calm Calm 1.2 mph1.9 kmh 29.94 in1013.9 mb - 0.00 in0.0 mm 0.02 in0.5 mm
09:30 PM 52.3°F11.3°C 52.3°F11.3°C 100% Calm Calm -- 29.94 in1013.9 mb - 0.00 in0.0 mm 0.02 in0.5 mm
10:00 PM 52.2°F11.2°C 52.2°F11.2°C 100% Calm Calm -- 29.94 in1013.9 mb - 0.00 in0.0 mm 0.02 in0.5 mm
10:30 PM 52.0°F11.1°C 52.0°F11.1°C 100% Calm Calm -- 29.94 in1013.9 mb - 0.00 in0.0 mm 0.02 in0.5 mm
11:00 PM 51.4°F10.8°C 51.4°F10.8°C 100% Calm Calm 1.2 mph1.9 kmh 29.93 in1013.5 mb - 0.00 in0.0 mm 0.02 in0.5 mm
11:30 PM 51.3°F10.7°C 51.3°F10.7°C 100% Calm Calm -- 29.93 in1013.5 mb - 0.00 in0.0 mm 0.02 in0.5 mm